sensor_id;sensor_type;location;lat;lon;timestamp;temperature;humidity
36548;DHT22;22551;52.206;4.856;2023-02-13T00:04:21;7.10;99.90
36548;DHT22;22551;52.206;4.856;2023-02-13T00:09:27;7.10;99.90
36548;DHT22;22551;52.206;4.856;2023-02-13T00:15:09;7.10;99.90
36548;DHT22;22551;52.206;4.856;2023-02-13T00:21:08;7.10;99.90
36548;DHT22;22551;52.206;4.856;2023-02-13T00:26:16;7.00;99.90
36548;DHT22;22551;52.206;4.856;2023-02-13T00:31:56;7.00;99.90
36548;DHT22;22551;52.206;4.856;2023-02-13T00:42:42;7.00;99.90
36548;DHT22;22551;52.206;4.856;2023-02-13T00:48:24;6.90;99.90
36548;DHT22;22551;52.206;4.856;2023-02-13T00:54:11;6.90;99.90
36548;DHT22;22551;52.206;4.856;2023-02-13T00:59:31;6.90;99.90
36548;DHT22;22551;52.206;4.856;2023-02-13T01:04:45;6.90;99.90
36548;DHT22;22551;52.206;4.856;2023-02-13T01:09:52;6.90;99.90
36548;DHT22;22551;52.206;4.856;2023-02-13T01:15:09;6.90;99.90
36548;DHT22;22551;52.206;4.856;2023-02-13T01:20:13;6.90;99.90
36548;DHT22;22551;52.206;4.856;2023-02-13T01:25:18;6.90;99.90
36548;DHT22;22551;52.206;4.856;2023-02-13T01:35:55;6.90;99.90
36548;DHT22;22551;52.206;4.856;2023-02-13T01:41:12;6.90;99.90
36548;DHT22;22551;52.206;4.856;2023-02-13T01:46:27;6.90;99.90
36548;DHT22;22551;52.206;4.856;2023-02-13T01:51:33;6.90;99.90
36548;DHT22;22551;52.206;4.856;2023-02-13T01:56:52;6.80;99.90
36548;DHT22;22551;52.206;4.856;2023-02-13T02:02:03;6.80;99.90
36548;DHT22;22551;52.206;4.856;2023-02-13T02:07:38;6.80;99.90
36548;DHT22;22551;52.206;4.856;2023-02-13T02:12:51;6.90;99.90
36548;DHT22;22551;52.206;4.856;2023-02-13T02:17:57;6.90;99.90
36548;DHT22;22551;52.206;4.856;2023-02-13T02:23:24;6.80;99.90
36548;DHT22;22551;52.206;4.856;2023-02-13T02:34:36;6.90;99.90
36548;DHT22;22551;52.206;4.856;2023-02-13T02:39:46;6.80;99.90
36548;DHT22;22551;52.206;4.856;2023-02-13T02:44:58;6.90;99.90
36548;DHT22;22551;52.206;4.856;2023-02-13T02:50:23;6.80;99.90
36548;DHT22;22551;52.206;4.856;2023-02-13T02:55:37;6.80;99.90
36548;DHT22;22551;52.206;4.856;2023-02-13T03:00:44;6.80;99.90
36548;DHT22;22551;52.206;4.856;2023-02-13T03:06:15;6.80;99.90
36548;DHT22;22551;52.206;4.856;2023-02-13T03:11:20;6.80;99.90
36548;DHT22;22551;52.206;4.856;2023-02-13T03:16:41;6.80;99.90
36548;DHT22;22551;52.206;4.856;2023-02-13T03:22:05;6.80;99.90
36548;DHT22;22551;52.206;4.856;2023-02-13T03:27:28;6.80;99.90
36548;DHT22;22551;52.206;4.856;2023-02-13T03:32:59;6.80;99.90
36548;DHT22;22551;52.206;4.856;2023-02-13T03:38:14;6.70;99.90
36548;DHT22;22551;52.206;4.856;2023-02-13T03:43:19;6.70;99.90
36548;DHT22;22551;52.206;4.856;2023-02-13T03:48:25;6.70;99.90
36548;DHT22;22551;52.206;4.856;2023-02-13T03:53:52;6.70;99.90
36548;DHT22;22551;52.206;4.856;2023-02-13T03:58:58;6.70;99.90
36548;DHT22;22551;52.206;4.856;2023-02-13T04:04:20;6.60;99.90
36548;DHT22;22551;52.206;4.856;2023-02-13T04:09:28;6.70;99.90
36548;DHT22;22551;52.206;4.856;2023-02-13T04:14:35;6.70;99.90
36548;DHT22;22551;52.206;4.856;2023-02-13T04:19:40;6.70;99.90
36548;DHT22;22551;52.206;4.856;2023-02-13T04:24:44;6.70;99.90
36548;DHT22;22551;52.206;4.856;2023-02-13T04:29:47;6.70;99.90
36548;DHT22;22551;52.206;4.856;2023-02-13T04:34:49;6.70;99.90
36548;DHT22;22551;52.206;4.856;2023-02-13T04:39:53;6.70;99.90
36548;DHT22;22551;52.206;4.856;2023-02-13T04:44:55;6.70;99.90
36548;DHT22;22551;52.206;4.856;2023-02-13T04:49:57;6.70;99.90
36548;DHT22;22551;52.206;4.856;2023-02-13T04:55:01;6.70;99.90
36548;DHT22;22551;52.206;4.856;2023-02-13T05:00:04;6.70;99.90
36548;DHT22;22551;52.206;4.856;2023-02-13T05:05:08;6.70;99.90
36548;DHT22;22551;52.206;4.856;2023-02-13T05:10:12;6.70;99.90
36548;DHT22;22551;52.206;4.856;2023-02-13T05:15:14;6.70;99.90
36548;DHT22;22551;52.206;4.856;2023-02-13T05:20:17;6.70;99.90
36548;DHT22;22551;52.206;4.856;2023-02-13T05:41:21;6.70;99.90
36548;DHT22;22551;52.206;4.856;2023-02-13T05:46:23;6.70;99.90
36548;DHT22;22551;52.206;4.856;2023-02-13T05:51:25;6.70;99.90
36548;DHT22;22551;52.206;4.856;2023-02-13T05:56:29;6.70;99.90
36548;DHT22;22551;52.206;4.856;2023-02-13T06:54:10;6.70;99.90
36548;DHT22;22551;52.206;4.856;2023-02-13T06:59:12;6.70;99.90
36548;DHT22;22551;52.206;4.856;2023-02-13T07:04:14;6.70;99.90
36548;DHT22;22551;52.206;4.856;2023-02-13T07:09:18;6.70;99.90
36548;DHT22;22551;52.206;4.856;2023-02-13T07:14:20;6.70;99.90
36548;DHT22;22551;52.206;4.856;2023-02-13T07:19:22;6.70;99.90
36548;DHT22;22551;52.206;4.856;2023-02-13T07:24:26;6.70;99.90
36548;DHT22;22551;52.206;4.856;2023-02-13T07:29:28;6.80;99.90
36548;DHT22;22551;52.206;4.856;2023-02-13T07:34:30;6.80;99.90
36548;DHT22;22551;52.206;4.856;2023-02-13T07:39:33;6.80;99.90
36548;DHT22;22551;52.206;4.856;2023-02-13T07:44:38;6.90;99.90
36548;DHT22;22551;52.206;4.856;2023-02-13T07:49:40;6.90;99.90
36548;DHT22;22551;52.206;4.856;2023-02-13T07:54:44;6.90;99.90
36548;DHT22;22551;52.206;4.856;2023-02-13T07:59:48;7.00;99.90
36548;DHT22;22551;52.206;4.856;2023-02-13T08:04:51;7.00;99.90
36548;DHT22;22551;52.206;4.856;2023-02-13T08:09:54;7.10;99.90
36548;DHT22;22551;52.206;4.856;2023-02-13T08:15:14;7.10;99.90
36548;DHT22;22551;52.206;4.856;2023-02-13T08:20:17;7.20;99.90
36548;DHT22;22551;52.206;4.856;2023-02-13T08:25:21;7.20;99.90
36548;DHT22;22551;52.206;4.856;2023-02-13T08:30:23;7.30;99.90
36548;DHT22;22551;52.206;4.856;2023-02-13T08:35:25;7.40;99.90
36548;DHT22;22551;52.206;4.856;2023-02-13T08:40:30;7.40;99.90
36548;DHT22;22551;52.206;4.856;2023-02-13T08:45:33;7.50;99.90
36548;DHT22;22551;52.206;4.856;2023-02-13T09:12:40;8.00;99.90
36548;DHT22;22551;52.206;4.856;2023-02-13T09:17:42;8.20;99.90
36548;DHT22;22551;52.206;4.856;2023-02-13T09:22:44;8.30;99.90
36548;DHT22;22551;52.206;4.856;2023-02-13T09:27:48;8.40;99.90
36548;DHT22;22551;52.206;4.856;2023-02-13T09:32:51;8.50;99.90
36548;DHT22;22551;52.206;4.856;2023-02-13T09:37:54;8.50;99.90
36548;DHT22;22551;52.206;4.856;2023-02-13T10:11:14;9.40;99.90
36548;DHT22;22551;52.206;4.856;2023-02-13T10:16:29;9.60;99.90
36548;DHT22;22551;52.206;4.856;2023-02-13T10:21:39;9.60;99.90
36548;DHT22;22551;52.206;4.856;2023-02-13T10:26:46;9.60;99.90
36548;DHT22;22551;52.206;4.856;2023-02-13T10:31:50;9.60;99.90
36548;DHT22;22551;52.206;4.856;2023-02-13T10:37:01;9.60;99.90
36548;DHT22;22551;52.206;4.856;2023-02-13T10:42:15;9.70;99.90
36548;DHT22;22551;52.206;4.856;2023-02-13T10:47:34;9.80;99.90
36548;DHT22;22551;52.206;4.856;2023-02-13T10:52:51;9.90;99.90
36548;DHT22;22551;52.206;4.856;2023-02-13T10:58:08;9.90;99.90
36548;DHT22;22551;52.206;4.856;2023-02-13T11:03:20;10.00;99.90
36548;DHT22;22551;52.206;4.856;2023-02-13T11:08:26;10.20;99.90
36548;DHT22;22551;52.206;4.856;2023-02-13T11:13:32;10.20;99.90
36548;DHT22;22551;52.206;4.856;2023-02-13T11:18:37;10.10;99.90
36548;DHT22;22551;52.206;4.856;2023-02-13T11:23:43;10.20;99.90
36548;DHT22;22551;52.206;4.856;2023-02-13T11:28:52;10.10;99.90
36548;DHT22;22551;52.206;4.856;2023-02-13T11:33:56;10.20;99.90
36548;DHT22;22551;52.206;4.856;2023-02-13T11:39:02;10.30;99.90
36548;DHT22;22551;52.206;4.856;2023-02-13T11:44:19;10.40;99.90
36548;DHT22;22551;52.206;4.856;2023-02-13T11:49:25;10.40;99.90
36548;DHT22;22551;52.206;4.856;2023-02-13T11:54:32;10.50;99.90
36548;DHT22;22551;52.206;4.856;2023-02-13T11:59:43;10.50;99.90
36548;DHT22;22551;52.206;4.856;2023-02-13T12:04:47;10.60;99.90
36548;DHT22;22551;52.206;4.856;2023-02-13T12:09:56;10.70;99.90
36548;DHT22;22551;52.206;4.856;2023-02-13T12:15:14;10.80;99.90
36548;DHT22;22551;52.206;4.856;2023-02-13T12:20:18;11.00;99.90
36548;DHT22;22551;52.206;4.856;2023-02-13T12:25:38;11.10;99.90
36548;DHT22;22551;52.206;4.856;2023-02-13T12:31:23;11.20;99.90
36548;DHT22;22551;52.206;4.856;2023-02-13T12:36:36;11.30;99.90
36548;DHT22;22551;52.206;4.856;2023-02-13T12:41:48;11.40;99.90
36548;DHT22;22551;52.206;4.856;2023-02-13T12:47:04;11.70;99.90
36548;DHT22;22551;52.206;4.856;2023-02-13T12:52:25;11.70;99.90
36548;DHT22;22551;52.206;4.856;2023-02-13T12:57:37;11.70;99.90
36548;DHT22;22551;52.206;4.856;2023-02-13T13:03:02;11.80;99.90
36548;DHT22;22551;52.206;4.856;2023-02-13T13:08:38;12.10;99.90
36548;DHT22;22551;52.206;4.856;2023-02-13T13:13:56;12.20;99.90
36548;DHT22;22551;52.206;4.856;2023-02-13T13:19:12;12.30;99.90
36548;DHT22;22551;52.206;4.856;2023-02-13T13:24:30;12.10;99.90
36548;DHT22;22551;52.206;4.856;2023-02-13T13:29:43;12.20;99.90
36548;DHT22;22551;52.206;4.856;2023-02-13T13:34:49;12.30;99.90
36548;DHT22;22551;52.206;4.856;2023-02-13T13:39:56;12.40;99.90
36548;DHT22;22551;52.206;4.856;2023-02-13T13:45:27;12.40;99.90
36548;DHT22;22551;52.206;4.856;2023-02-13T13:50:40;12.50;99.90
36548;DHT22;22551;52.206;4.856;2023-02-13T13:56:01;12.40;99.90
36548;DHT22;22551;52.206;4.856;2023-02-13T14:01:23;12.50;99.90
36548;DHT22;22551;52.206;4.856;2023-02-13T14:12:35;12.30;99.90
36548;DHT22;22551;52.206;4.856;2023-02-13T14:17:52;12.30;99.90
36548;DHT22;22551;52.206;4.856;2023-02-13T14:23:20;12.20;99.90
36548;DHT22;22551;52.206;4.856;2023-02-13T14:28:40;12.20;99.90
36548;DHT22;22551;52.206;4.856;2023-02-13T14:33:43;12.30;99.90
36548;DHT22;22551;52.206;4.856;2023-02-13T14:38:54;12.20;99.90
36548;DHT22;22551;52.206;4.856;2023-02-13T14:43:57;12.00;99.90
36548;DHT22;22551;52.206;4.856;2023-02-13T14:49:01;12.00;99.90
36548;DHT22;22551;52.206;4.856;2023-02-13T14:54:17;11.90;99.90
36548;DHT22;22551;52.206;4.856;2023-02-13T14:59:25;11.80;99.90
36548;DHT22;22551;52.206;4.856;2023-02-13T15:04:37;11.70;99.90
36548;DHT22;22551;52.206;4.856;2023-02-13T15:09:49;11.60;99.90
36548;DHT22;22551;52.206;4.856;2023-02-13T15:14:52;11.60;99.90
36548;DHT22;22551;52.206;4.856;2023-02-13T15:20:00;11.40;99.90
36548;DHT22;22551;52.206;4.856;2023-02-13T15:25:07;11.40;99.90
36548;DHT22;22551;52.206;4.856;2023-02-13T15:30:19;11.40;99.90
36548;DHT22;22551;52.206;4.856;2023-02-13T15:35:24;11.20;99.90
36548;DHT22;22551;52.206;4.856;2023-02-13T15:40:32;11.10;99.90
36548;DHT22;22551;52.206;4.856;2023-02-13T15:45:36;11.00;99.90
36548;DHT22;22551;52.206;4.856;2023-02-13T15:50:44;11.10;99.90
36548;DHT22;22551;52.206;4.856;2023-02-13T15:55:58;11.10;99.90
36548;DHT22;22551;52.206;4.856;2023-02-13T16:01:04;10.90;99.90
36548;DHT22;22551;52.206;4.856;2023-02-13T16:06:13;10.70;99.90
36548;DHT22;22551;52.206;4.856;2023-02-13T16:11:29;10.60;99.90
36548;DHT22;22551;52.206;4.856;2023-02-13T16:16:40;10.50;99.90
36548;DHT22;22551;52.206;4.856;2023-02-13T16:21:46;10.30;99.90
36548;DHT22;22551;52.206;4.856;2023-02-13T16:26:50;10.20;99.90
36548;DHT22;22551;52.206;4.856;2023-02-13T16:32:03;10.00;99.90
36548;DHT22;22551;52.206;4.856;2023-02-13T16:37:25;9.90;99.90
36548;DHT22;22551;52.206;4.856;2023-02-13T16:42:29;9.70;99.90
36548;DHT22;22551;52.206;4.856;2023-02-13T16:47:32;9.50;99.90
36548;DHT22;22551;52.206;4.856;2023-02-13T16:52:34;9.40;99.90
36548;DHT22;22551;52.206;4.856;2023-02-13T16:57:39;9.20;99.90
36548;DHT22;22551;52.206;4.856;2023-02-13T17:02:45;9.00;99.90
36548;DHT22;22551;52.206;4.856;2023-02-13T17:07:49;8.90;99.90
36548;DHT22;22551;52.206;4.856;2023-02-13T17:12:55;8.70;99.90
36548;DHT22;22551;52.206;4.856;2023-02-13T17:17:59;8.60;99.90
36548;DHT22;22551;52.206;4.856;2023-02-13T17:23:02;8.40;99.90
36548;DHT22;22551;52.206;4.856;2023-02-13T17:28:12;8.30;99.90
36548;DHT22;22551;52.206;4.856;2023-02-13T17:33:18;8.20;99.90
36548;DHT22;22551;52.206;4.856;2023-02-13T17:38:22;8.10;99.90
36548;DHT22;22551;52.206;4.856;2023-02-13T17:43:25;7.90;99.90
36548;DHT22;22551;52.206;4.856;2023-02-13T17:48:29;7.80;99.90
36548;DHT22;22551;52.206;4.856;2023-02-13T17:53:31;7.60;99.90
36548;DHT22;22551;52.206;4.856;2023-02-13T17:58:35;7.50;99.90
36548;DHT22;22551;52.206;4.856;2023-02-13T18:03:37;7.40;99.90
36548;DHT22;22551;52.206;4.856;2023-02-13T18:08:40;7.30;99.90
36548;DHT22;22551;52.206;4.856;2023-02-13T18:13:44;7.10;99.90
36548;DHT22;22551;52.206;4.856;2023-02-13T18:18:48;7.10;99.90
36548;DHT22;22551;52.206;4.856;2023-02-13T18:23:51;7.00;99.90
36548;DHT22;22551;52.206;4.856;2023-02-13T18:28:55;6.80;99.90
36548;DHT22;22551;52.206;4.856;2023-02-13T18:33:57;6.80;99.90
36548;DHT22;22551;52.206;4.856;2023-02-13T18:38:59;6.70;99.90
36548;DHT22;22551;52.206;4.856;2023-02-13T18:44:03;6.70;99.90
36548;DHT22;22551;52.206;4.856;2023-02-13T18:49:06;6.50;99.90
36548;DHT22;22551;52.206;4.856;2023-02-13T18:54:08;6.40;99.90
36548;DHT22;22551;52.206;4.856;2023-02-13T18:59:12;6.30;99.90
36548;DHT22;22551;52.206;4.856;2023-02-13T19:04:14;6.20;99.90
36548;DHT22;22551;52.206;4.856;2023-02-13T19:09:17;6.10;99.90
36548;DHT22;22551;52.206;4.856;2023-02-13T19:14:21;6.00;99.90
36548;DHT22;22551;52.206;4.856;2023-02-13T19:19:23;5.90;99.90
36548;DHT22;22551;52.206;4.856;2023-02-13T19:24:26;5.80;99.90
36548;DHT22;22551;52.206;4.856;2023-02-13T19:29:29;5.80;99.90
36548;DHT22;22551;52.206;4.856;2023-02-13T19:34:32;5.70;99.90
36548;DHT22;22551;52.206;4.856;2023-02-13T19:39:34;5.60;99.90
36548;DHT22;22551;52.206;4.856;2023-02-13T19:44:37;5.60;99.90
36548;DHT22;22551;52.206;4.856;2023-02-13T19:49:39;5.50;99.90
36548;DHT22;22551;52.206;4.856;2023-02-13T19:54:41;5.50;99.90
36548;DHT22;22551;52.206;4.856;2023-02-13T19:59:46;5.40;99.90
36548;DHT22;22551;52.206;4.856;2023-02-13T20:04:48;5.40;99.90
36548;DHT22;22551;52.206;4.856;2023-02-13T20:09:50;5.30;99.90
36548;DHT22;22551;52.206;4.856;2023-02-13T20:14:54;5.30;99.90
36548;DHT22;22551;52.206;4.856;2023-02-13T20:19:57;5.30;99.90
36548;DHT22;22551;52.206;4.856;2023-02-13T20:24:59;5.30;99.90
36548;DHT22;22551;52.206;4.856;2023-02-13T20:30:03;5.20;99.90
36548;DHT22;22551;52.206;4.856;2023-02-13T20:35:07;5.10;99.90
36548;DHT22;22551;52.206;4.856;2023-02-13T20:40:10;5.10;99.90
36548;DHT22;22551;52.206;4.856;2023-02-13T20:45:14;5.10;99.90
36548;DHT22;22551;52.206;4.856;2023-02-13T20:50:17;5.10;99.90
36548;DHT22;22551;52.206;4.856;2023-02-13T20:55:20;5.00;99.90
36548;DHT22;22551;52.206;4.856;2023-02-13T21:00:23;5.00;99.90
36548;DHT22;22551;52.206;4.856;2023-02-13T21:05:25;5.10;99.90
36548;DHT22;22551;52.206;4.856;2023-02-13T21:10:28;5.10;99.90
36548;DHT22;22551;52.206;4.856;2023-02-13T21:15:31;5.10;99.90
36548;DHT22;22551;52.206;4.856;2023-02-13T21:20:35;5.10;99.90
36548;DHT22;22551;52.206;4.856;2023-02-13T21:25:37;5.00;99.90
36548;DHT22;22551;52.206;4.856;2023-02-13T21:30:41;4.90;99.90
36548;DHT22;22551;52.206;4.856;2023-02-13T21:35:43;5.00;99.90
36548;DHT22;22551;52.206;4.856;2023-02-13T21:40:45;4.90;99.90
36548;DHT22;22551;52.206;4.856;2023-02-13T21:45:49;4.90;99.90
36548;DHT22;22551;52.206;4.856;2023-02-13T21:50:54;4.80;99.90
36548;DHT22;22551;52.206;4.856;2023-02-13T21:56:00;4.70;99.90
36548;DHT22;22551;52.206;4.856;2023-02-13T22:01:10;4.80;99.90
36548;DHT22;22551;52.206;4.856;2023-02-13T22:06:15;4.80;99.90
36548;DHT22;22551;52.206;4.856;2023-02-13T22:11:18;4.70;99.90
36548;DHT22;22551;52.206;4.856;2023-02-13T22:16:22;4.70;99.90
36548;DHT22;22551;52.206;4.856;2023-02-13T22:21:26;4.70;99.90
36548;DHT22;22551;52.206;4.856;2023-02-13T22:26:31;4.60;99.90
36548;DHT22;22551;52.206;4.856;2023-02-13T22:31:36;4.50;99.90
36548;DHT22;22551;52.206;4.856;2023-02-13T22:36:39;4.50;99.90
36548;DHT22;22551;52.206;4.856;2023-02-13T22:41:42;4.40;99.90
36548;DHT22;22551;52.206;4.856;2023-02-13T22:46:46;4.30;99.90
36548;DHT22;22551;52.206;4.856;2023-02-13T22:51:48;4.30;99.90
36548;DHT22;22551;52.206;4.856;2023-02-13T22:56:50;4.30;99.90
36548;DHT22;22551;52.206;4.856;2023-02-13T23:01:54;4.20;99.90
36548;DHT22;22551;52.206;4.856;2023-02-13T23:06:56;4.20;99.90
36548;DHT22;22551;52.206;4.856;2023-02-13T23:11:58;4.10;99.90
36548;DHT22;22551;52.206;4.856;2023-02-13T23:17:19;4.10;99.90
36548;DHT22;22551;52.206;4.856;2023-02-13T23:22:39;4.10;99.90
36548;DHT22;22551;52.206;4.856;2023-02-13T23:27:42;4.10;99.90
36548;DHT22;22551;52.206;4.856;2023-02-13T23:32:46;4.10;99.90
36548;DHT22;22551;52.206;4.856;2023-02-13T23:37:48;4.10;99.90
36548;DHT22;22551;52.206;4.856;2023-02-13T23:42:50;4.00;99.90
36548;DHT22;22551;52.206;4.856;2023-02-13T23:47:54;3.90;99.90
36548;DHT22;22551;52.206;4.856;2023-02-13T23:52:57;3.90;99.90
36548;DHT22;22551;52.206;4.856;2023-02-13T23:58:00;3.90;99.90
